Time;durP1;ratioP1;P1;durP2;ratioP2;P2;SDS_P1;SDS_P2;PMS_P1;PMS_P2;Temp;Humidity;BMP_temperature;BMP_pressure;BME280_temperature;BME280_humidity;BME280_pressure;Samples;Min_cycle;Max_cycle;Signal;HPM_P1;HPM_P2
2021/08/04 00:01:03;;;;;;;6.53;5.55;;;;;;;12.85;95.38;93215.45;1748219;78;21041;-81
2021/08/04 00:03:30;;;;;;;7.42;5.70;;;;;;;12.66;95.90;93211.28;1740357;78;21597;-81
2021/08/04 00:05:56;;;;;;;7.15;4.97;;;;;;;12.51;96.56;93216.18;1691178;78;21019;-82
2021/08/04 00:08:23;;;;;;;4.70;4.30;;;;;;;12.47;96.96;93226.37;1739857;78;21493;-81
2021/08/04 00:10:49;;;;;;;6.22;3.92;;;;;;;12.37;96.97;93224.76;1735968;78;21229;-84
2021/08/04 00:13:16;;;;;;;6.40;4.95;;;;;;;12.25;97.53;93222.56;1711616;79;21074;-80
2021/08/04 00:15:44;;;;;;;6.10;4.15;;;;;;;12.14;98.37;93222.70;1747481;78;21795;-81
2021/08/04 00:18:11;;;;;;;5.87;4.75;;;;;;;12.13;99.29;93217.08;1716808;79;21076;-81
2021/08/04 00:20:37;;;;;;;5.40;4.35;;;;;;;12.21;99.52;93216.39;1792124;78;21077;-81
2021/08/04 00:23:04;;;;;;;5.53;4.90;;;;;;;12.25;98.99;93213.02;1716619;78;21692;-81
2021/08/04 00:25:31;;;;;;;5.35;4.83;;;;;;;12.25;98.56;93215.75;1772384;79;21719;-81
2021/08/04 00:27:57;;;;;;;5.33;4.55;;;;;;;12.28;98.48;93211.44;1735456;79;21052;-81
2021/08/04 00:30:23;;;;;;;5.30;4.70;;;;;;;12.30;97.98;93211.81;1719428;80;21123;-80
2021/08/04 00:32:53;;;;;;;5.87;5.37;;;;;;;12.24;97.62;93210.13;1711688;79;21145;-81
2021/08/04 00:35:18;;;;;;;6.10;5.12;;;;;;;12.19;97.78;93218.00;1686382;80;21099;-79
2021/08/04 00:37:45;;;;;;;7.95;5.33;;;;;;;12.13;98.06;93218.44;1711199;80;21128;-79
2021/08/04 00:40:13;;;;;;;6.62;5.78;;;;;;;12.12;98.39;93214.77;1774302;78;21074;-79
2021/08/04 00:42:40;;;;;;;10.48;7.17;;;;;;;12.13;98.77;93221.16;1765288;79;21064;-80
2021/08/04 00:45:08;;;;;;;11.18;7.00;;;;;;;12.18;98.95;93226.75;1755763;79;21141;-80
2021/08/04 00:47:35;;;;;;;9.63;6.67;;;;;;;12.25;99.14;93218.48;1738761;78;21023;-80
2021/08/04 00:50:05;;;;;;;9.25;6.47;;;;;;;12.34;99.02;93224.21;1743137;78;21092;-80
2021/08/04 00:52:31;;;;;;;8.63;6.60;;;;;;;12.43;98.57;93223.69;1677688;80;21272;-80
2021/08/04 00:54:58;;;;;;;10.20;7.17;;;;;;;12.48;98.24;93217.00;1712744;80;21140;-81
2021/08/04 00:57:25;;;;;;;10.08;6.75;;;;;;;12.53;97.96;93215.95;1739530;79;21093;-81
2021/08/04 00:59:52;;;;;;;10.55;7.00;;;;;;;12.57;97.38;93216.67;1696492;80;21042;-83
2021/08/04 01:02:24;;;;;;;13.28;7.22;;;;;;;12.58;97.07;93214.12;1771106;79;21636;-81
2021/08/04 01:05:00;;;;;;;6.78;5.80;;;;;;;12.58;96.54;93214.12;1735008;80;21080;-80
2021/08/04 01:07:32;;;;;;;11.22;6.72;;;;;;;12.54;96.14;93222.18;1789493;78;21571;-80
2021/08/04 01:10:22;;;;;;;12.00;6.90;;;;;;;12.49;95.93;93219.33;1737020;79;21050;-80
2021/08/04 01:13:04;;;;;;;8.73;6.40;;;;;;;12.36;95.88;93209.56;1701700;80;21049;-79
2021/08/04 01:15:37;;;;;;;10.88;5.62;;;;;;;12.22;96.44;93211.11;1770889;78;21061;-79
2021/08/04 01:18:04;;;;;;;5.92;5.33;;;;;;;12.16;96.00;93208.68;1734574;80;21633;-80
2021/08/04 01:20:30;;;;;;;6.83;5.97;;;;;;;12.12;95.55;93210.09;1703505;80;21117;-80
2021/08/04 01:23:23;;;;;;;8.18;5.33;;;;;;;12.02;95.57;93208.86;1743721;79;21108;-80
2021/08/04 01:26:28;;;;;;;9.13;5.15;;;;;;;11.90;96.36;93202.77;1725630;80;21062;-81
2021/08/04 01:28:58;;;;;;;5.65;5.03;;;;;;;11.85;97.40;93198.38;1758813;80;22337;-81
2021/08/04 01:31:28;;;;;;;10.05;5.20;;;;;;;11.90;97.94;93199.28;1727485;80;21056;-86
2021/08/04 01:33:55;;;;;;;5.30;4.90;;;;;;;11.90;98.03;93194.59;1730020;80;21034;-81
2021/08/04 01:36:21;;;;;;;6.70;4.47;;;;;;;11.96;97.40;93195.50;1738995;80;21135;-81
2021/08/04 01:38:47;;;;;;;14.35;5.67;;;;;;;11.95;96.80;93200.77;1715674;79;21084;-81
2021/08/04 01:41:15;;;;;;;5.47;4.05;;;;;;;11.90;96.74;93189.16;1719295;80;21069;-80
2021/08/04 01:43:42;;;;;;;5.22;4.28;;;;;;;11.87;97.16;93196.00;1764331;78;21029;-81
2021/08/04 01:46:10;;;;;;;5.65;5.10;;;;;;;11.84;97.44;93194.09;1746138;79;21050;-80
2021/08/04 01:48:40;;;;;;;6.65;4.40;;;;;;;11.84;97.86;93188.64;1784106;78;21143;-80
2021/08/04 01:51:09;;;;;;;5.00;4.42;;;;;;;11.89;97.44;93187.62;1733421;78;21412;-81
2021/08/04 01:53:37;;;;;;;5.85;4.50;;;;;;;11.88;96.85;93188.01;1744203;79;21316;-81
2021/08/04 01:56:04;;;;;;;5.75;4.55;;;;;;;11.87;96.81;93185.88;1733950;78;21074;-81
2021/08/04 01:58:31;;;;;;;4.30;3.87;;;;;;;11.85;96.58;93188.25;1751203;80;21045;-80
2021/08/04 02:00:57;;;;;;;6.22;4.22;;;;;;;11.82;96.77;93191.76;1734805;81;21211;-81
2021/08/04 02:03:25;;;;;;;7.08;4.47;;;;;;;11.77;97.32;93185.97;1701122;81;21074;-81
2021/08/04 02:05:52;;;;;;;4.33;3.92;;;;;;;11.80;97.68;93189.25;1747434;78;21096;-82
2021/08/04 02:08:40;;;;;;;10.38;5.25;;;;;;;11.81;97.64;93188.86;1738999;79;21049;-83
2021/08/04 02:11:32;;;;;;;7.45;5.87;;;;;;;11.83;97.52;93189.80;1783111;78;21047;-80
2021/08/04 02:14:01;;;;;;;10.15;5.97;;;;;;;11.75;97.19;93189.71;1745152;79;21274;-81
2021/08/04 02:16:33;;;;;;;7.55;5.40;;;;;;;11.73;97.68;93192.06;1708066;80;21064;-82
2021/08/04 02:19:20;;;;;;;11.00;5.70;;;;;;;11.73;97.29;93198.27;1728820;78;21045;-81
2021/08/04 02:22:00;;;;;;;12.63;6.65;;;;;;;11.70;97.03;93211.37;1727613;78;21033;-83
2021/08/04 02:24:27;;;;;;;8.93;4.60;;;;;;;11.66;97.09;93207.91;1738210;78;21615;-81
2021/08/04 02:26:54;;;;;;;9.28;4.50;;;;;;;11.66;96.60;93210.64;1740035;79;21143;-82
2021/08/04 02:29:20;;;;;;;5.22;4.70;;;;;;;11.65;96.30;93214.52;1726819;81;21390;-81
2021/08/04 02:31:47;;;;;;;4.50;4.10;;;;;;;11.60;96.38;93211.66;1709557;80;21594;-81
2021/08/04 02:34:15;;;;;;;7.55;5.12;;;;;;;11.53;96.53;93210.37;1743623;80;21097;-80
2021/08/04 02:36:43;;;;;;;5.37;4.87;;;;;;;11.46;96.94;93216.48;1774876;79;21116;-79
2021/08/04 02:39:09;;;;;;;5.03;4.53;;;;;;;11.41;97.44;93221.79;1754709;80;21649;-81
2021/08/04 02:41:36;;;;;;;7.85;5.12;;;;;;;11.38;97.81;93227.45;1766529;78;21519;-81
2021/08/04 02:44:03;;;;;;;6.65;4.17;;;;;;;11.39;98.27;93227.63;1723713;80;21081;-81
2021/08/04 02:46:31;;;;;;;4.78;4.37;;;;;;;11.41;98.53;93225.87;1734699;81;21015;-82
2021/08/04 02:48:58;;;;;;;7.20;5.30;;;;;;;11.43;98.63;93230.31;1766046;79;21631;-81
2021/08/04 02:51:24;;;;;;;7.28;4.95;;;;;;;11.48;98.57;93237.28;1715488;81;21132;-80
2021/08/04 02:53:58;;;;;;;5.58;4.78;;;;;;;11.50;98.36;93228.88;1680193;81;21050;-81
2021/08/04 02:56:25;;;;;;;9.48;4.75;;;;;;;11.51;97.53;93229.65;1713971;79;21117;-81
2021/08/04 02:58:52;;;;;;;4.78;4.25;;;;;;;11.47;96.87;93229.71;1757158;80;21040;-82
2021/08/04 03:01:19;;;;;;;6.42;4.22;;;;;;;11.40;96.62;93223.74;1758329;80;21124;-80
2021/08/04 03:03:46;;;;;;;4.42;4.03;;;;;;;11.29;96.90;93223.67;1749558;79;21057;-85
2021/08/04 03:06:14;;;;;;;4.65;4.10;;;;;;;11.17;97.79;93217.55;1733086;80;21097;-82
2021/08/04 03:08:41;;;;;;;3.85;3.45;;;;;;;11.18;98.58;93216.38;1730252;80;21123;-80
2021/08/04 03:11:09;;;;;;;4.67;4.10;;;;;;;11.24;98.17;93209.89;1711495;80;21844;-81
2021/08/04 03:13:36;;;;;;;4.78;4.37;;;;;;;11.29;98.23;93210.06;1724134;78;21049;-81
2021/08/04 03:16:03;;;;;;;5.17;3.90;;;;;;;11.35;98.13;93211.91;1763661;79;21769;-80
2021/08/04 03:18:30;;;;;;;3.80;3.50;;;;;;;11.40;97.90;93207.41;1689819;78;21115;-80
2021/08/04 03:20:57;;;;;;;7.70;3.98;;;;;;;11.46;97.70;93198.20;1687155;78;21051;-80
2021/08/04 03:23:24;;;;;;;5.80;3.50;;;;;;;11.50;97.47;93207.69;1713747;78;21108;-81
2021/08/04 03:25:51;;;;;;;4.22;3.75;;;;;;;11.52;97.83;93209.42;1730328;78;21046;-81
2021/08/04 03:28:17;;;;;;;5.25;4.50;;;;;;;11.58;97.68;93215.36;1668681;81;21296;-80
2021/08/04 03:30:44;;;;;;;5.65;4.92;;;;;;;11.57;97.26;93223.36;1693493;79;21068;-81
2021/08/04 03:33:10;;;;;;;7.60;4.53;;;;;;;11.56;97.32;93231.35;1702079;80;21074;-81
2021/08/04 03:35:37;;;;;;;6.30;5.20;;;;;;;11.58;97.22;93228.21;1684716;79;21109;-81
2021/08/04 03:38:03;;;;;;;6.35;5.40;;;;;;;11.56;97.14;93230.58;1713111;78;21092;-81
2021/08/04 03:40:30;;;;;;;6.10;5.12;;;;;;;11.52;97.02;93231.98;1747987;80;21038;-82
2021/08/04 03:42:56;;;;;;;9.53;5.42;;;;;;;11.50;96.97;93236.28;1685506;79;21128;-81
2021/08/04 03:45:23;;;;;;;7.35;5.17;;;;;;;11.47;97.09;93237.08;1714373;80;21072;-82
2021/08/04 03:47:50;;;;;;;23.52;15.58;;;;;;;11.48;97.48;93231.84;1719253;80;21062;-82
2021/08/04 03:50:17;;;;;;;24.10;17.40;;;;;;;11.52;97.78;93239.38;1737833;78;21053;-82
2021/08/04 03:52:44;;;;;;;11.55;8.88;;;;;;;11.57;97.54;93238.92;1704231;79;21139;-82
2021/08/04 03:55:12;;;;;;;17.12;7.62;;;;;;;11.58;97.22;93236.38;1726767;79;21040;-84
2021/08/04 03:57:39;;;;;;;10.68;6.90;;;;;;;11.59;97.18;93239.31;1739170;78;21065;-82
2021/08/04 04:00:07;;;;;;;9.03;6.92;;;;;;;11.60;96.88;93240.25;1741226;78;21646;-81
2021/08/04 04:02:35;;;;;;;10.75;6.65;;;;;;;11.58;96.91;93241.23;1732476;80;21068;-82
2021/08/04 04:05:02;;;;;;;6.83;5.30;;;;;;;11.59;97.03;93246.12;1691614;80;21703;-81
2021/08/04 04:07:28;;;;;;;10.75;6.53;;;;;;;11.63;97.13;93246.85;1760232;78;21091;-81
2021/08/04 04:09:55;;;;;;;8.68;5.60;;;;;;;11.65;96.92;93245.25;1758321;80;21061;-81
2021/08/04 04:12:21;;;;;;;9.55;6.78;;;;;;;11.62;96.89;93239.84;1680779;80;21534;-80
2021/08/04 04:14:49;;;;;;;11.10;7.40;;;;;;;11.60;97.28;93243.56;1712574;80;21075;-79
2021/08/04 04:17:17;;;;;;;9.50;7.25;;;;;;;11.62;97.75;93241.20;1689623;80;21136;-81
2021/08/04 04:19:46;;;;;;;7.53;5.50;;;;;;;11.70;97.79;93245.41;1624425;83;21435;-80
2021/08/04 04:22:12;;;;;;;8.38;5.10;;;;;;;11.75;97.50;93236.78;1651894;82;21653;-80
2021/08/04 04:24:39;;;;;;;5.55;4.67;;;;;;;11.75;97.70;93232.70;1657963;83;21062;-82
2021/08/04 04:27:06;;;;;;;5.10;4.28;;;;;;;11.81;97.76;93232.45;1639801;84;21128;-80
2021/08/04 04:29:33;;;;;;;7.40;5.25;;;;;;;11.84;97.72;93236.32;1633406;83;21939;-78
2021/08/04 04:32:00;;;;;;;6.12;4.45;;;;;;;11.83;97.70;93232.03;1610433;84;21056;-78
2021/08/04 04:34:26;;;;;;;7.17;4.90;;;;;;;11.87;98.07;93232.19;1616359;84;21081;-78
2021/08/04 04:36:53;;;;;;;6.10;4.67;;;;;;;11.92;98.06;93239.14;1594131;83;21109;-79
2021/08/04 04:39:19;;;;;;;5.53;4.72;;;;;;;11.94;98.21;93239.52;1633956;82;21433;-79
2021/08/04 04:41:46;;;;;;;6.83;4.33;;;;;;;11.96;98.38;93236.38;1613037;82;21142;-80
2021/08/04 04:44:12;;;;;;;10.98;5.97;;;;;;;11.98;98.50;93227.98;1655937;82;21130;-79
2021/08/04 04:46:40;;;;;;;7.45;5.35;;;;;;;12.06;98.44;93228.66;1652220;82;21108;-78
2021/08/04 04:49:06;;;;;;;7.67;5.08;;;;;;;12.11;98.27;93235.02;1583415;83;21080;-79
2021/08/04 04:51:33;;;;;;;5.22;4.45;;;;;;;12.18;98.22;93240.37;1608356;84;21921;-81
2021/08/04 04:53:59;;;;;;;8.10;5.30;;;;;;;12.25;98.26;93232.70;1666951;84;21550;-79
2021/08/04 04:56:26;;;;;;;8.18;6.72;;;;;;;12.29;97.58;93230.10;1637301;83;21085;-78
2021/08/04 04:58:54;;;;;;;6.90;5.85;;;;;;;12.30;97.44;93224.85;1625356;83;21698;-78
2021/08/04 05:01:21;;;;;;;11.57;6.58;;;;;;;12.37;97.97;93217.94;1588579;83;21116;-80
2021/08/04 05:03:48;;;;;;;6.80;4.95;;;;;;;12.52;98.70;93213.03;1659365;83;21068;-79
2021/08/04 05:06:14;;;;;;;7.75;5.72;;;;;;;12.69;98.93;93220.78;1660165;82;21441;-79
2021/08/04 05:08:41;;;;;;;4.42;4.03;;;;;;;12.89;99.23;93220.27;1653260;83;21152;-80
2021/08/04 05:11:07;;;;;;;7.03;5.30;;;;;;;13.13;99.25;93229.84;1656576;82;21104;-79
2021/08/04 05:13:38;;;;;;;5.37;4.87;;;;;;;13.38;97.56;93228.66;1655690;82;21136;-78
2021/08/04 05:16:05;;;;;;;5.53;4.17;;;;;;;13.57;96.10;93225.19;1653197;83;21094;-78
2021/08/04 05:18:32;;;;;;;5.33;4.40;;;;;;;13.72;94.16;93223.73;1611893;82;21679;-76
2021/08/04 05:20:58;;;;;;;6.58;5.00;;;;;;;13.81;92.67;93228.66;1632992;82;22300;-79
2021/08/04 05:23:25;;;;;;;5.40;4.72;;;;;;;13.91;92.93;93229.62;1605081;83;21113;-77
2021/08/04 05:25:51;;;;;;;5.10;4.60;;;;;;;14.07;92.86;93220.91;1629894;82;21085;-76
2021/08/04 05:28:18;;;;;;;6.90;5.75;;;;;;;14.26;92.77;93228.92;1672067;83;21152;-77
2021/08/04 05:30:44;;;;;;;8.15;4.28;;;;;;;14.48;92.49;93223.77;1622332;83;21418;-77
2021/08/04 05:33:11;;;;;;;5.45;4.05;;;;;;;14.65;91.13;93217.74;1659502;82;21646;-77
2021/08/04 05:35:37;;;;;;;6.37;4.33;;;;;;;14.72;89.37;93223.05;1643592;82;21069;-79
2021/08/04 05:38:03;;;;;;;6.53;4.28;;;;;;;14.77;88.55;93222.54;1652378;82;21080;-78
2021/08/04 05:40:30;;;;;;;4.78;4.10;;;;;;;14.89;88.38;93216.98;1659136;82;21135;-78
2021/08/04 05:42:57;;;;;;;4.58;4.17;;;;;;;15.02;87.70;93212.98;1665645;82;21825;-78
2021/08/04 05:45:24;;;;;;;5.12;4.12;;;;;;;15.20;87.53;93220.77;1605036;83;21140;-78
2021/08/04 05:47:50;;;;;;;4.33;4.00;;;;;;;15.44;86.90;93222.70;1632014;83;21030;-76
2021/08/04 05:50:17;;;;;;;4.12;3.72;;;;;;;15.73;85.67;93218.66;1655359;82;21548;-76
2021/08/04 05:52:44;;;;;;;4.50;3.87;;;;;;;16.06;84.60;93219.91;1655762;82;21136;-77
2021/08/04 05:55:11;;;;;;;5.30;3.50;;;;;;;16.38;82.46;93222.51;1628286;82;21113;-76
2021/08/04 05:57:40;;;;;;;3.55;3.27;;;;;;;16.67;80.65;93218.92;1684747;80;21096;-78
2021/08/04 06:00:09;;;;;;;4.17;3.60;;;;;;;16.89;79.38;93216.33;1674349;80;21472;-77
2021/08/04 06:02:36;;;;;;;6.53;3.50;;;;;;;17.03;78.69;93212.34;1698707;79;22327;-77
2021/08/04 06:05:04;;;;;;;5.72;4.25;;;;;;;17.17;77.46;93211.89;1750476;78;21001;-78
2021/08/04 06:07:30;;;;;;;5.25;3.55;;;;;;;17.34;76.83;93213.30;1743207;78;21108;-77
2021/08/04 06:09:56;;;;;;;5.25;4.22;;;;;;;17.64;76.80;93211.11;1689648;79;21084;-78
2021/08/04 06:12:23;;;;;;;6.47;4.53;;;;;;;18.07;76.08;93209.05;1642293;81;21698;-78
2021/08/04 06:14:50;;;;;;;4.92;4.17;;;;;;;18.59;75.21;93210.90;1688785;79;21685;-78
2021/08/04 06:17:16;;;;;;;6.30;4.30;;;;;;;19.04;71.77;93202.09;1728668;79;21119;-77
2021/08/04 06:19:43;;;;;;;4.97;3.70;;;;;;;19.28;69.59;93197.41;1707516;79;21131;-78
2021/08/04 06:22:09;;;;;;;3.90;3.60;;;;;;;19.35;69.07;93190.98;1705573;80;21097;-76
2021/08/04 06:24:36;;;;;;;5.42;4.08;;;;;;;19.31;69.05;93200.02;1700712;79;21116;-77
2021/08/04 06:27:02;;;;;;;4.92;3.70;;;;;;;19.23;67.97;93189.75;1709754;79;21111;-79
2021/08/04 06:29:29;;;;;;;4.37;3.98;;;;;;;19.12;67.71;93197.83;1655643;79;21096;-77
2021/08/04 06:31:55;;;;;;;6.58;3.65;;;;;;;18.97;67.42;93191.34;1702434;79;21195;-78
2021/08/04 06:34:21;;;;;;;6.60;4.17;;;;;;;18.82;68.93;93187.63;1702061;79;21115;-77
2021/08/04 06:36:50;;;;;;;5.22;3.77;;;;;;;18.74;69.75;93191.88;1700812;79;21068;-78
2021/08/04 06:39:17;;;;;;;7.80;4.00;;;;;;;18.67;69.74;93186.00;1668864;80;21104;-79
2021/08/04 06:41:44;;;;;;;10.45;6.58;;;;;;;18.59;70.01;93193.00;1747009;78;21084;-79
2021/08/04 06:44:10;;;;;;;4.60;4.15;;;;;;;18.58;70.60;93188.11;1741787;78;21179;-78
2021/08/04 06:46:38;;;;;;;5.28;4.08;;;;;;;18.66;71.10;93184.47;1721177;78;21349;-78
2021/08/04 06:49:06;;;;;;;3.75;3.45;;;;;;;18.82;71.07;93184.87;1769515;78;21763;-77
2021/08/04 06:51:32;;;;;;;4.15;3.80;;;;;;;18.98;69.59;93183.23;1745254;79;21136;-77
2021/08/04 06:54:02;;;;;;;4.97;3.92;;;;;;;19.14;69.10;93182.20;1775620;78;21108;-77
2021/08/04 06:56:27;;;;;;;4.95;3.83;;;;;;;19.28;68.53;93183.00;1743818;79;21777;-77
2021/08/04 06:58:54;;;;;;;5.72;3.77;;;;;;;19.39;67.07;93183.95;1716545;78;21086;-78
2021/08/04 07:01:20;;;;;;;5.05;3.92;;;;;;;19.40;67.07;93183.48;1644268;79;21379;-78
2021/08/04 07:03:47;;;;;;;6.33;3.58;;;;;;;19.43;66.13;93174.16;1724823;78;21117;-76
2021/08/04 07:06:14;;;;;;;3.50;3.17;;;;;;;19.46;66.34;93174.63;1748343;78;21085;-76
2021/08/04 07:08:40;;;;;;;4.12;3.72;;;;;;;19.51;66.39;93174.77;1709887;78;22354;-77
2021/08/04 07:11:07;;;;;;;3.55;3.25;;;;;;;19.55;66.03;93178.75;1721412;78;21082;-77
2021/08/04 07:13:34;;;;;;;3.85;3.30;;;;;;;19.60;66.16;93176.17;1720886;78;21104;-77
2021/08/04 07:16:00;;;;;;;5.40;3.67;;;;;;;19.67;65.04;93175.73;1703371;78;22184;-76
2021/08/04 07:18:27;;;;;;;3.75;3.45;;;;;;;19.71;64.52;93171.61;1699859;78;21069;-77
2021/08/04 07:20:55;;;;;;;4.92;3.90;;;;;;;19.78;66.20;93169.93;1724836;78;21609;-76
2021/08/04 07:23:22;;;;;;;3.12;2.83;;;;;;;19.86;65.30;93167.62;1694229;78;21536;-76
2021/08/04 07:25:49;;;;;;;5.22;3.70;;;;;;;19.93;65.38;93165.15;1774353;78;21514;-76
2021/08/04 07:28:16;;;;;;;3.45;2.98;;;;;;;19.95;64.96;93159.33;1777329;78;21393;-76
2021/08/04 07:30:42;;;;;;;3.33;2.87;;;;;;;20.00;63.73;93160.70;1704751;78;21046;-76
2021/08/04 07:33:09;;;;;;;6.60;3.85;;;;;;;20.08;64.31;93161.91;1721381;78;40089;-76
2021/08/04 07:35:36;;;;;;;5.08;4.35;;;;;;;20.16;64.06;93162.36;1749395;78;21057;-77
2021/08/04 07:38:02;;;;;;;7.58;4.40;;;;;;;20.21;63.60;93162.52;1729336;78;21233;-78
2021/08/04 07:40:29;;;;;;;4.37;3.65;;;;;;;20.26;62.61;93150.84;1730878;78;21081;-77
2021/08/04 07:42:55;;;;;;;7.40;3.85;;;;;;;20.40;61.35;93154.96;1675048;78;21091;-79
2021/08/04 07:45:21;;;;;;;4.37;3.70;;;;;;;20.51;60.59;93153.12;1729291;78;21117;-77
2021/08/04 07:47:48;;;;;;;4.72;3.50;;;;;;;20.65;61.53;93164.11;1650401;81;21134;-77
2021/08/04 07:50:15;;;;;;;3.12;2.80;;;;;;;20.77;62.66;93144.59;1749705;78;21337;-77
2021/08/04 07:52:42;;;;;;;3.95;3.17;;;;;;;20.88;61.72;93143.32;1702760;78;21153;-77
2021/08/04 07:55:13;;;;;;;3.35;3.08;;;;;;;20.96;61.45;93142.50;1700101;78;21367;-80
2021/08/04 07:57:38;;;;;;;2.98;2.77;;;;;;;21.06;61.61;93141.23;1714232;79;22224;-77
2021/08/04 08:00:06;;;;;;;6.40;2.67;;;;;;;21.15;60.29;93134.11;1724339;80;21132;-76
2021/08/04 08:02:35;;;;;;;4.67;3.22;;;;;;;21.21;60.20;93138.53;1721275;80;21649;-77
2021/08/04 08:05:04;;;;;;;3.20;2.90;;;;;;;21.26;59.82;93134.36;1748973;78;21069;-77
2021/08/04 08:07:32;;;;;;;3.25;3.00;;;;;;;21.31;60.94;93130.94;1682832;78;21093;-81
2021/08/04 08:09:59;;;;;;;3.90;2.62;;;;;;;21.36;59.95;93131.69;1703875;79;22421;-78
2021/08/04 08:12:27;;;;;;;3.15;2.25;;;;;;;21.41;59.96;93130.30;1714315;79;21085;-78
2021/08/04 08:14:53;;;;;;;3.17;2.98;;;;;;;21.47;60.33;93125.00;1714600;78;21037;-77
2021/08/04 08:17:23;;;;;;;3.42;2.80;;;;;;;21.53;59.93;93121.74;1714418;78;21065;-76
2021/08/04 08:19:50;;;;;;;3.60;2.67;;;;;;;21.52;58.35;93116.07;1766424;79;20972;-79
2021/08/04 08:22:19;;;;;;;2.98;2.65;;;;;;;21.55;58.27;93117.11;1775992;79;21137;-78
2021/08/04 08:24:46;;;;;;;3.25;2.77;;;;;;;21.63;58.90;93114.15;1762362;76;403039;-78
2021/08/04 08:27:12;;;;;;;3.83;2.55;;;;;;;21.70;58.17;93118.53;1801545;77;21121;-75
2021/08/04 08:29:38;;;;;;;3.30;3.00;;;;;;;21.72;58.30;93111.91;1706443;81;21080;-75
2021/08/04 08:32:06;;;;;;;5.33;2.45;;;;;;;21.75;57.77;93113.12;1711139;79;21155;-78
2021/08/04 08:34:32;;;;;;;8.45;2.72;;;;;;;21.75;57.41;93106.83;1803457;77;21410;-76
2021/08/04 08:36:58;;;;;;;3.45;2.25;;;;;;;21.78;57.51;93104.50;1774831;77;21421;-77
2021/08/04 08:39:25;;;;;;;2.15;1.95;;;;;;;21.85;57.39;93099.19;1798810;76;21123;-78
2021/08/04 08:41:51;;;;;;;3.33;3.08;;;;;;;21.91;57.33;93097.30;1770135;76;21129;-77
2021/08/04 08:44:17;;;;;;;3.62;2.55;;;;;;;22.01;58.62;93100.13;1783647;77;21119;-79
2021/08/04 08:46:44;;;;;;;4.08;2.37;;;;;;;22.10;57.82;93098.64;1768722;77;21358;-76
2021/08/04 08:49:10;;;;;;;6.58;3.30;;;;;;;22.11;56.26;93096.02;1742319;78;21182;-77
2021/08/04 08:51:37;;;;;;;4.33;2.67;;;;;;;22.07;57.14;93102.36;1750887;76;21074;-79
2021/08/04 08:54:04;;;;;;;2.55;2.35;;;;;;;22.07;58.00;93101.73;1770401;78;21091;-76
2021/08/04 08:56:30;;;;;;;2.83;2.62;;;;;;;22.14;57.86;93096.48;1757797;77;21071;-78
2021/08/04 08:58:57;;;;;;;3.85;2.50;;;;;;;22.20;56.60;93093.82;1764469;79;21084;-78
2021/08/04 09:01:37;;;;;;;3.12;2.83;;;;;;;22.19;56.66;93097.81;1731494;78;21674;-75
2021/08/04 09:04:09;;;;;;;7.30;5.62;;;;;;;22.17;55.71;93094.14;1757541;79;21302;-76
2021/08/04 09:06:52;;;;;;;4.97;4.47;;;;;;;22.09;55.21;93099.89;1748563;77;21064;-77
2021/08/04 09:09:28;;;;;;;4.15;3.20;;;;;;;21.99;54.42;93093.67;1799985;76;21317;-78
2021/08/04 09:12:13;;;;;;;3.42;3.12;;;;;;;21.97;55.15;93101.70;1801279;77;21168;-79
2021/08/04 09:14:42;;;;;;;4.10;3.70;;;;;;;22.00;56.28;93094.43;1793140;76;22082;-77
2021/08/04 09:17:16;;;;;;;5.75;3.42;;;;;;;22.06;54.72;93093.30;1709163;78;21406;-76
2021/08/04 09:19:50;;;;;;;3.25;2.95;;;;;;;22.17;55.71;93082.31;1765524;79;21097;-76
2021/08/04 09:22:25;;;;;;;4.37;3.05;;;;;;;22.27;53.73;93076.20;1707274;81;21092;-76
2021/08/04 09:25:10;;;;;;;3.17;2.87;;;;;;;22.29;53.59;93078.48;1674127;80;21857;-77
2021/08/04 09:27:41;;;;;;;4.55;3.10;;;;;;;22.25;54.28;93067.59;1707763;78;21151;-82
2021/08/04 09:30:10;;;;;;;4.28;3.87;;;;;;;22.25;54.32;93065.45;1682603;80;21167;-78
2021/08/04 09:32:38;;;;;;;3.33;2.90;;;;;;;22.25;52.95;93068.22;1709137;79;21110;-76
2021/08/04 09:35:15;;;;;;;4.90;3.30;;;;;;;22.21;51.92;93074.57;1702892;80;21078;-83
2021/08/04 09:37:43;;;;;;;3.85;3.50;;;;;;;22.15;51.81;93070.94;1762102;79;21094;-82
2021/08/04 09:40:11;;;;;;;4.80;3.40;;;;;;;22.04;51.65;93070.09;1706811;80;21163;-78
2021/08/04 09:42:42;;;;;;;3.83;3.40;;;;;;;21.99;52.01;93073.53;1701299;80;22286;-78
2021/08/04 09:45:09;;;;;;;4.08;3.50;;;;;;;22.03;52.52;93063.80;1723277;79;21085;-87
2021/08/04 09:47:35;;;;;;;4.10;3.60;;;;;;;22.15;50.22;93065.39;1746799;79;21132;-76
2021/08/04 09:50:06;;;;;;;3.92;3.62;;;;;;;22.24;49.47;93068.84;1701628;79;21069;-81
2021/08/04 09:52:35;;;;;;;5.05;3.75;;;;;;;22.28;47.99;93073.56;1680707;79;21552;-81
2021/08/04 09:55:17;;;;;;;4.22;3.83;;;;;;;22.26;47.83;93066.34;1679366;80;21095;-76
2021/08/04 09:57:48;;;;;;;4.40;3.02;;;;;;;22.21;49.50;93073.19;1753850;79;21129;-76
2021/08/04 10:00:16;;;;;;;3.77;3.47;;;;;;;22.19;49.24;93055.67;1706155;79;21107;-77
2021/08/04 10:02:45;;;;;;;4.10;3.70;;;;;;;22.25;50.86;93059.91;1707708;79;21163;-77
2021/08/04 10:05:19;;;;;;;4.25;3.85;;;;;;;22.30;51.97;93060.02;1658236;80;21079;-75
2021/08/04 10:08:10;;;;;;;6.53;4.03;;;;;;;22.35;52.33;93066.12;1729295;79;21101;-75
2021/08/04 10:10:46;;;;;;;3.75;3.45;;;;;;;22.36;51.14;93071.80;1693285;81;21104;-75
2021/08/04 10:13:17;;;;;;;4.60;4.22;;;;;;;22.41;50.14;93066.95;1729418;81;21257;-77
2021/08/04 10:15:45;;;;;;;4.40;3.42;;;;;;;22.48;49.76;93054.86;1700665;81;21120;-73
2021/08/04 10:18:17;;;;;;;4.67;3.67;;;;;;;22.61;49.10;93048.27;1683866;80;21076;-76
2021/08/04 10:20:49;;;;;;;3.62;3.33;;;;;;;22.71;48.13;93055.19;1715682;80;21063;-76
2021/08/04 10:23:17;;;;;;;4.97;3.83;;;;;;;22.77;48.68;93054.03;1713925;80;21069;-79
2021/08/04 10:25:44;;;;;;;4.78;3.72;;;;;;;22.84;47.87;93052.88;1697452;81;21065;-74
2021/08/04 10:28:11;;;;;;;3.92;3.62;;;;;;;22.95;47.13;93059.98;1702387;80;21087;-78
2021/08/04 10:30:40;;;;;;;4.05;3.45;;;;;;;23.04;47.73;93059.09;1744918;80;21335;-75
2021/08/04 10:33:08;;;;;;;3.50;3.25;;;;;;;23.08;47.08;93054.09;1685264;78;21099;-76
2021/08/04 10:35:36;;;;;;;5.62;3.10;;;;;;;23.08;47.63;93047.16;1698334;80;21078;-76
2021/08/04 10:38:07;;;;;;;3.42;3.12;;;;;;;23.12;49.14;93043.56;1719828;80;21151;-75
2021/08/04 10:40:33;;;;;;;3.77;3.42;;;;;;;23.19;48.11;93043.15;1717633;80;21846;-77
2021/08/04 10:43:00;;;;;;;4.62;3.17;;;;;;;23.26;47.76;93039.96;1727857;80;21169;-77
2021/08/04 10:45:28;;;;;;;3.58;3.27;;;;;;;23.24;47.42;93034.75;1702075;78;21174;-78
2021/08/04 10:48:14;;;;;;;4.05;3.25;;;;;;;23.25;49.28;93029.36;1706054;78;21084;-75
2021/08/04 10:50:55;;;;;;;4.15;3.08;;;;;;;23.25;48.35;93037.06;1750327;78;20942;-75
2021/08/04 10:53:22;;;;;;;5.22;4.45;;;;;;;23.22;48.28;93049.75;1719301;81;21888;-76
2021/08/04 10:55:52;;;;;;;3.02;2.83;;;;;;;23.22;48.77;93040.03;1712012;81;21053;-75
2021/08/04 10:58:19;;;;;;;5.03;3.20;;;;;;;23.18;48.58;93043.64;1737126;78;21001;-78
2021/08/04 11:00:47;;;;;;;3.27;3.08;;;;;;;23.14;48.76;93041.70;1684383;79;21140;-74
2021/08/04 11:03:43;;;;;;;3.67;3.35;;;;;;;23.07;48.48;93055.35;1678941;79;21111;-74
2021/08/04 11:06:10;;;;;;;3.52;2.95;;;;;;;22.98;47.66;93055.47;1744316;78;21787;-78
2021/08/04 11:08:38;;;;;;;3.37;3.08;;;;;;;22.86;49.10;93054.52;1723417;80;21077;-75
2021/08/04 11:11:07;;;;;;;3.00;2.80;;;;;;;22.82;49.35;93045.66;1740811;80;21542;-74
2021/08/04 11:13:54;;;;;;;3.02;2.72;;;;;;;22.83;48.61;93062.44;1723129;81;21112;-75
2021/08/04 11:16:34;;;;;;;3.40;3.10;;;;;;;22.87;47.63;93049.14;1699208;80;21589;-74
2021/08/04 11:19:09;;;;;;;2.83;2.50;;;;;;;22.87;47.27;93047.76;1717625;79;22316;-75
2021/08/04 11:21:36;;;;;;;4.67;2.72;;;;;;;22.90;47.62;93048.78;1729421;79;21089;-75
2021/08/04 11:24:06;;;;;;;3.55;2.40;;;;;;;22.97;47.12;93047.78;1719435;80;21087;-74
2021/08/04 11:26:37;;;;;;;3.00;2.70;;;;;;;23.06;46.95;93062.16;1629118;80;21094;-77
2021/08/04 11:29:08;;;;;;;2.92;2.72;;;;;;;23.10;45.21;93046.07;1720375;80;21172;-74
2021/08/04 11:31:35;;;;;;;2.90;2.70;;;;;;;23.12;46.55;93038.64;1712313;79;21090;-76
2021/08/04 11:34:31;;;;;;;3.02;2.83;;;;;;;23.19;46.57;93032.05;1739943;80;21013;-75
2021/08/04 11:37:00;;;;;;;3.62;2.90;;;;;;;23.26;46.54;93028.11;1760612;79;20998;-78
2021/08/04 11:39:26;;;;;;;2.67;2.47;;;;;;;23.36;48.91;93036.44;1688913;79;21094;-74